Time;durP1;ratioP1;P1;durP2;ratioP2;P2;SDS_P1;SDS_P2;PMS_P1;PMS_P2;Temp;Humidity;BMP_temperature;BMP_pressure;BME280_temperature;BME280_humidity;BME280_pressure;Samples;Min_cycle;Max_cycle;Signal;HPM_P1;HPM_P2
2023/07/24 00:02:06;;;;;;;14.13;5.80;;;17.70;99.90;;;;;;4953077;29;20027;-67
2023/07/24 00:04:32;;;;;;;15.93;6.47;;;17.70;99.90;;;;;;4953763;28;20085;-66
2023/07/24 00:06:59;;;;;;;13.48;6.03;;;17.70;99.90;;;;;;4952185;28;20403;-67
2023/07/24 00:09:25;;;;;;;18.88;6.75;;;17.70;99.90;;;;;;4953908;28;20062;-67
2023/07/24 00:11:50;;;;;;;15.65;5.88;;;17.70;99.90;;;;;;4954317;29;20448;-67
2023/07/24 00:14:16;;;;;;;10.93;4.78;;;17.70;99.90;;;;;;4954101;29;20039;-67
2023/07/24 00:16:42;;;;;;;20.90;5.80;;;17.70;99.90;;;;;;4954111;29;20027;-66
2023/07/24 00:19:08;;;;;;;14.00;5.28;;;17.80;99.90;;;;;;4954440;29;20369;-67
2023/07/24 00:21:33;;;;;;;16.38;5.68;;;17.80;99.90;;;;;;4954144;29;20034;-68
2023/07/24 00:23:59;;;;;;;16.50;5.18;;;17.80;99.90;;;;;;4954090;29;20089;-67
2023/07/24 00:26:25;;;;;;;16.40;5.78;;;17.80;99.90;;;;;;4953939;29;20413;-67
2023/07/24 00:28:50;;;;;;;15.85;5.18;;;17.80;99.90;;;;;;4953737;29;20050;-68
2023/07/24 00:31:16;;;;;;;9.70;3.08;;;17.80;99.90;;;;;;4954043;29;20486;-67
2023/07/24 00:33:41;;;;;;;18.25;4.90;;;17.80;99.90;;;;;;4953626;29;20031;-67
2023/07/24 00:36:07;;;;;;;16.38;5.30;;;17.80;99.90;;;;;;4953868;29;20035;-68
2023/07/24 00:38:32;;;;;;;15.52;5.25;;;17.80;99.90;;;;;;4954035;29;20482;-67
2023/07/24 00:40:58;;;;;;;16.52;5.72;;;17.80;99.90;;;;;;4947688;29;20709;-68
2023/07/24 00:43:23;;;;;;;15.35;5.35;;;17.80;99.90;;;;;;4947189;29;20612;-68
2023/07/24 00:45:49;;;;;;;12.63;5.10;;;17.70;99.90;;;;;;4948981;29;20449;-67
2023/07/24 00:48:15;;;;;;;15.70;4.68;;;17.80;99.90;;;;;;4951279;28;20396;-66
2023/07/24 00:50:44;;;;;;;13.27;5.15;;;17.80;99.90;;;;;;4943584;29;20059;-67
2023/07/24 00:53:12;;;;;;;14.40;5.10;;;17.80;99.90;;;;;;4953574;28;20039;-67
2023/07/24 00:55:38;;;;;;;15.20;5.15;;;17.80;99.90;;;;;;4953884;28;20554;-66
2023/07/24 00:58:04;;;;;;;13.13;4.88;;;17.80;99.90;;;;;;4953396;28;20026;-67
2023/07/24 01:00:30;;;;;;;13.63;5.00;;;17.80;99.90;;;;;;4954050;28;20432;-68
2023/07/24 01:02:56;;;;;;;15.48;4.32;;;17.80;99.90;;;;;;4953763;28;20089;-67
2023/07/24 01:05:24;;;;;;;14.70;4.80;;;17.80;99.90;;;;;;4954048;29;20410;-68
2023/07/24 01:07:51;;;;;;;15.80;5.22;;;17.80;99.90;;;;;;4953568;28;20175;-66
2023/07/24 01:10:17;;;;;;;18.10;5.32;;;17.80;99.90;;;;;;4953573;28;20023;-68
2023/07/24 01:13:05;;;;;;;14.40;5.13;;;17.80;99.90;;;;;;4953897;29;20122;-67
2023/07/24 01:15:38;;;;;;;19.30;5.13;;;17.80;99.90;;;;;;4953434;28;20114;-68
2023/07/24 01:18:09;;;;;;;12.20;4.47;;;17.80;99.90;;;;;;4922655;29;20166;-67
2023/07/24 01:20:37;;;;;;;12.65;4.90;;;17.90;99.90;;;;;;4953671;28;20039;-68
2023/07/24 01:23:37;;;;;;;14.50;4.97;;;17.90;99.90;;;;;;4953484;28;20073;-67
2023/07/24 01:26:03;;;;;;;16.20;5.32;;;17.90;99.90;;;;;;4923779;29;20090;-66
2023/07/24 01:28:29;;;;;;;16.40;5.22;;;17.90;99.90;;;;;;4953493;29;20035;-67
2023/07/24 01:30:55;;;;;;;15.57;5.47;;;17.90;99.90;;;;;;4953539;28;20027;-67
2023/07/24 01:33:22;;;;;;;13.57;5.25;;;17.90;99.90;;;;;;4952790;28;20031;-67
2023/07/24 01:35:52;;;;;;;15.65;5.15;;;17.90;99.90;;;;;;4953753;28;20047;-67
2023/07/24 01:38:18;;;;;;;14.40;4.72;;;17.90;99.90;;;;;;4953385;28;20048;-67
2023/07/24 01:40:44;;;;;;;17.58;5.15;;;18.00;99.90;;;;;;4953265;28;20067;-67
2023/07/24 01:43:10;;;;;;;19.05;6.50;;;18.00;99.90;;;;;;4942325;28;20048;-67
2023/07/24 01:45:35;;;;;;;18.52;4.68;;;18.10;99.90;;;;;;4950466;29;20027;-67
2023/07/24 01:48:04;;;;;;;20.23;5.13;;;18.10;99.90;;;;;;4953488;29;20031;-67
2023/07/24 01:50:29;;;;;;;12.93;4.10;;;18.10;99.90;;;;;;4953153;28;20046;-67
2023/07/24 01:52:55;;;;;;;17.05;4.90;;;18.20;99.90;;;;;;4953136;29;20031;-66
2023/07/24 01:55:20;;;;;;;13.30;4.80;;;18.20;99.90;;;;;;4953915;28;20042;-67
2023/07/24 01:57:46;;;;;;;18.60;5.22;;;18.20;99.90;;;;;;4956983;29;20392;-66
2023/07/24 02:00:12;;;;;;;16.75;4.72;;;18.10;99.90;;;;;;4956354;28;20455;-67
2023/07/24 02:02:37;;;;;;;12.55;4.38;;;18.20;99.90;;;;;;4956201;28;20111;-67
2023/07/24 02:05:03;;;;;;;16.45;4.35;;;18.20;99.90;;;;;;4956586;29;20510;-67
2023/07/24 02:07:29;;;;;;;15.43;4.80;;;18.20;99.90;;;;;;4956872;28;20035;-67
2023/07/24 02:09:54;;;;;;;15.68;4.82;;;18.20;99.90;;;;;;4956199;29;20035;-67
2023/07/24 02:12:20;;;;;;;15.38;5.18;;;18.20;99.90;;;;;;4956518;29;20035;-67
2023/07/24 02:14:49;;;;;;;15.52;5.00;;;18.20;99.90;;;;;;4956360;28;20027;-66
2023/07/24 02:17:18;;;;;;;17.25;5.10;;;18.20;99.90;;;;;;4942428;28;20556;-67
2023/07/24 02:19:44;;;;;;;15.23;4.55;;;18.30;99.90;;;;;;4954440;29;20035;-67
2023/07/24 02:22:10;;;;;;;14.95;4.82;;;18.30;99.90;;;;;;4956594;28;20039;-68
2023/07/24 02:24:35;;;;;;;18.55;5.00;;;18.40;99.90;;;;;;4955964;29;20451;-67
2023/07/24 02:27:01;;;;;;;21.58;5.28;;;18.40;99.90;;;;;;4955968;29;20033;-68
2023/07/24 02:29:26;;;;;;;16.27;4.97;;;18.40;99.90;;;;;;4955642;29;20375;-68
2023/07/24 02:31:54;;;;;;;16.67;5.35;;;18.50;99.90;;;;;;4956046;29;20384;-68
2023/07/24 02:34:24;;;;;;;17.42;5.35;;;18.40;99.90;;;;;;4955990;28;20043;-67
2023/07/24 02:36:49;;;;;;;18.08;5.13;;;18.40;99.90;;;;;;4956257;28;20031;-67
2023/07/24 02:39:15;;;;;;;15.52;5.00;;;18.40;99.90;;;;;;4952154;28;20524;-67
2023/07/24 02:41:41;;;;;;;20.20;5.55;;;18.40;99.90;;;;;;4955808;29;20106;-67
2023/07/24 02:44:06;;;;;;;17.80;5.25;;;18.40;99.90;;;;;;4955408;29;20055;-67
2023/07/24 02:46:32;;;;;;;17.90;5.35;;;18.40;99.90;;;;;;4955645;29;20027;-68
2023/07/24 02:48:57;;;;;;;17.13;5.63;;;18.40;99.90;;;;;;4955841;29;20031;-67
2023/07/24 02:51:23;;;;;;;14.60;5.22;;;18.50;99.90;;;;;;4955753;29;20383;-66
2023/07/24 02:53:48;;;;;;;16.00;5.75;;;18.50;99.90;;;;;;4955351;29;20480;-67
2023/07/24 02:56:15;;;;;;;17.02;5.25;;;18.50;99.90;;;;;;4955470;29;20039;-67
2023/07/24 02:58:41;;;;;;;16.48;5.15;;;18.50;99.90;;;;;;4955266;29;20305;-66
2023/07/24 03:01:07;;;;;;;14.65;5.38;;;18.50;99.90;;;;;;4954275;29;20046;-67
2023/07/24 03:03:34;;;;;;;16.27;5.20;;;18.50;99.90;;;;;;4955158;29;20043;-67
2023/07/24 03:05:59;;;;;;;19.55;5.55;;;18.50;99.90;;;;;;4955501;28;20111;-67
2023/07/24 03:08:25;;;;;;;15.48;4.97;;;18.50;99.90;;;;;;4954458;28;20150;-67
2023/07/24 03:10:51;;;;;;;16.30;5.30;;;18.40;99.90;;;;;;4955740;28;20031;-67
2023/07/24 03:13:16;;;;;;;18.75;5.53;;;18.40;99.90;;;;;;4954903;29;20039;-68
2023/07/24 03:15:42;;;;;;;20.10;5.97;;;18.40;99.90;;;;;;4955397;29;20039;-67
2023/07/24 03:18:07;;;;;;;19.45;5.40;;;18.40;99.90;;;;;;4955522;29;20035;-67
2023/07/24 03:20:33;;;;;;;13.50;5.32;;;18.40;99.90;;;;;;4953695;29;20114;-67
2023/07/24 03:22:58;;;;;;;18.38;6.30;;;18.40;99.90;;;;;;4954915;29;20126;-68
2023/07/24 03:25:24;;;;;;;16.25;5.70;;;18.40;99.90;;;;;;4954925;29;20035;-67
2023/07/24 03:27:49;;;;;;;19.02;5.53;;;18.40;99.90;;;;;;4954425;28;20031;-66
2023/07/24 03:30:15;;;;;;;15.77;5.35;;;18.40;99.90;;;;;;4954995;29;20039;-67
2023/07/24 03:32:41;;;;;;;18.63;5.95;;;18.40;99.90;;;;;;4954944;29;20039;-67
2023/07/24 03:35:07;;;;;;;15.10;5.35;;;18.40;99.90;;;;;;4954915;29;20031;-67
2023/07/24 03:37:34;;;;;;;17.67;5.20;;;18.40;99.90;;;;;;4954826;28;20073;-67
2023/07/24 03:40:00;;;;;;;15.02;5.47;;;18.40;99.90;;;;;;4954923;28;20086;-67
2023/07/24 03:42:31;;;;;;;13.25;5.05;;;18.40;99.90;;;;;;4954343;28;20408;-68
2023/07/24 03:44:57;;;;;;;16.77;5.13;;;18.40;99.90;;;;;;4954920;28;20104;-68
2023/07/24 03:47:23;;;;;;;17.75;5.63;;;18.40;99.90;;;;;;4954878;28;20027;-67
2023/07/24 03:49:48;;;;;;;18.27;5.15;;;18.50;99.90;;;;;;4954540;28;20531;-67
2023/07/24 03:52:14;;;;;;;16.58;4.97;;;18.50;99.90;;;;;;4954392;29;20059;-67
2023/07/24 03:54:39;;;;;;;19.20;6.13;;;18.40;99.90;;;;;;4954490;29;20458;-68
2023/07/24 03:57:05;;;;;;;22.83;6.03;;;18.50;99.90;;;;;;4954021;29;20039;-67
2023/07/24 03:59:31;;;;;;;17.35;5.75;;;18.50;99.90;;;;;;4954497;29;20042;-67
2023/07/24 04:01:57;;;;;;;18.42;5.20;;;18.50;99.90;;;;;;4954317;29;20403;-67
2023/07/24 04:04:23;;;;;;;18.05;5.22;;;18.50;99.90;;;;;;4954703;28;20134;-67
2023/07/24 04:06:49;;;;;;;15.98;5.85;;;18.50;99.90;;;;;;4954675;28;20118;-67
2023/07/24 04:09:14;;;;;;;16.15;5.60;;;18.50;99.90;;;;;;4954373;29;20031;-68
2023/07/24 04:11:43;;;;;;;18.83;5.60;;;18.60;99.90;;;;;;4954456;28;20046;-67
2023/07/24 04:14:09;;;;;;;21.00;5.93;;;18.50;99.90;;;;;;4954791;28;20413;-67
2023/07/24 04:16:34;;;;;;;15.55;5.75;;;18.50;99.90;;;;;;4954602;29;20024;-67
2023/07/24 04:19:00;;;;;;;17.20;6.10;;;18.60;99.90;;;;;;4954187;28;20028;-67
2023/07/24 04:21:26;;;;;;;21.23;6.40;;;18.60;99.90;;;;;;4954562;29;20027;-68
2023/07/24 04:23:51;;;;;;;17.45;5.63;;;18.60;99.90;;;;;;4954378;29;20043;-68
2023/07/24 04:26:17;;;;;;;16.63;5.47;;;18.60;99.90;;;;;;4954213;29;20119;-67
2023/07/24 04:28:42;;;;;;;20.13;5.82;;;18.60;99.90;;;;;;4954697;29;20039;-68
2023/07/24 04:31:08;;;;;;;22.65;6.88;;;18.60;99.90;;;;;;4954326;29;20027;-67
2023/07/24 04:33:33;;;;;;;14.75;5.75;;;18.60;99.90;;;;;;4954456;29;20047;-68
2023/07/24 04:35:59;;;;;;;17.35;5.82;;;18.60;99.90;;;;;;4954032;29;20031;-68
2023/07/24 04:38:25;;;;;;;19.50;5.65;;;18.50;99.90;;;;;;4954308;29;20027;-68
2023/07/24 04:40:50;;;;;;;20.13;5.82;;;18.50;99.90;;;;;;4953879;29;20035;-67
2023/07/24 04:43:16;;;;;;;25.88;6.80;;;18.60;99.90;;;;;;4954122;29;20066;-68
2023/07/24 04:45:41;;;;;;;16.23;5.43;;;18.50;99.90;;;;;;4954227;29;20034;-67
2023/07/24 04:48:07;;;;;;;17.10;5.70;;;18.60;99.90;;;;;;4954225;29;20031;-67
2023/07/24 04:50:32;;;;;;;19.98;5.80;;;18.50;99.90;;;;;;4953857;29;20035;-67
2023/07/24 04:52:58;;;;;;;16.63;5.22;;;18.60;99.90;;;;;;4953810;28;20078;-68
2023/07/24 04:55:24;;;;;;;19.65;6.20;;;18.60;99.90;;;;;;4953506;28;20078;-68
2023/07/24 04:57:50;;;;;;;18.60;6.13;;;18.60;99.90;;;;;;4953904;28;20047;-68
2023/07/24 05:00:16;;;;;;;23.77;7.25;;;18.60;99.90;;;;;;4953915;29;20145;-67
2023/07/24 05:02:41;;;;;;;20.63;7.03;;;18.60;99.90;;;;;;4953374;28;20035;-67
2023/07/24 05:05:07;;;;;;;18.35;7.05;;;18.70;99.90;;;;;;4953762;29;20186;-67
2023/07/24 05:07:33;;;;;;;21.20;8.52;;;18.70;99.90;;;;;;4953364;28;20046;-67
2023/07/24 05:09:59;;;;;;;22.70;8.07;;;18.80;99.90;;;;;;4953412;29;20035;-67
2023/07/24 05:12:24;;;;;;;20.00;7.30;;;18.80;99.90;;;;;;4953998;29;20035;-67
2023/07/24 05:14:50;;;;;;;21.52;7.65;;;18.90;99.90;;;;;;4953986;28;20031;-68
2023/07/24 05:17:16;;;;;;;19.02;7.10;;;18.90;99.90;;;;;;4953816;29;20028;-67
2023/07/24 05:19:41;;;;;;;23.73;9.60;;;18.90;99.90;;;;;;4953741;28;20031;-67
2023/07/24 05:22:07;;;;;;;21.40;8.80;;;18.80;99.90;;;;;;4953840;29;20438;-68
2023/07/24 05:24:33;;;;;;;17.45;6.57;;;18.90;99.90;;;;;;4953094;28;20538;-67
2023/07/24 05:26:59;;;;;;;22.77;10.38;;;18.90;99.90;;;;;;4953925;29;20070;-67
2023/07/24 05:29:24;;;;;;;18.05;6.95;;;18.90;99.90;;;;;;4953588;29;20547;-67
2023/07/24 05:31:50;;;;;;;19.45;7.13;;;19.00;99.90;;;;;;4957043;28;20102;-68
2023/07/24 05:34:15;;;;;;;18.55;6.63;;;19.00;99.90;;;;;;4957101;29;20058;-68
2023/07/24 05:36:41;;;;;;;19.45;8.57;;;19.00;99.90;;;;;;4957434;29;20027;-67
2023/07/24 05:39:07;;;;;;;18.45;7.05;;;19.00;99.90;;;;;;4957031;28;20115;-68
2023/07/24 05:41:32;;;;;;;21.15;8.50;;;19.10;99.90;;;;;;4957584;29;20027;-65
2023/07/24 05:43:58;;;;;;;20.95;8.13;;;19.00;99.90;;;;;;4956931;28;20039;-66
2023/07/24 05:46:23;;;;;;;23.33;8.80;;;19.20;99.90;;;;;;4957223;29;20388;-66
2023/07/24 05:48:49;;;;;;;19.20;7.72;;;19.10;99.90;;;;;;4957255;29;20031;-67
2023/07/24 05:51:14;;;;;;;18.20;7.20;;;19.20;99.90;;;;;;4957107;29;20023;-67
2023/07/24 05:53:40;;;;;;;21.88;7.60;;;19.20;99.90;;;;;;4956540;29;20038;-66
2023/07/24 05:56:05;;;;;;;19.73;8.00;;;19.20;99.90;;;;;;4955936;29;20034;-67
2023/07/24 05:58:31;;;;;;;20.80;7.60;;;19.40;99.90;;;;;;4935609;29;20126;-68
2023/07/24 06:00:57;;;;;;;23.27;8.65;;;19.50;99.90;;;;;;4923664;29;20088;-68
2023/07/24 06:03:24;;;;;;;21.45;8.45;;;19.60;99.90;;;;;;4925137;29;20039;-67
2023/07/24 06:05:54;;;;;;;17.52;7.38;;;19.70;99.90;;;;;;4927989;29;20058;-68
2023/07/24 06:08:20;;;;;;;15.52;6.70;;;19.80;99.90;;;;;;4927773;29;20492;-68
2023/07/24 06:10:48;;;;;;;14.90;5.90;;;19.80;99.90;;;;;;4927274;29;20022;-68
2023/07/24 06:13:14;;;;;;;20.08;6.65;;;19.90;99.90;;;;;;4928691;29;20412;-68
2023/07/24 06:15:40;;;;;;;17.10;6.28;;;20.00;99.90;;;;;;4927990;29;20028;-67
2023/07/24 06:18:06;;;;;;;19.88;6.93;;;20.00;99.90;;;;;;4927221;29;20030;-68
2023/07/24 06:20:31;;;;;;;19.85;7.18;;;20.00;99.90;;;;;;4928669;29;20028;-68
2023/07/24 06:22:57;;;;;;;16.48;7.47;;;20.10;99.90;;;;;;4926103;29;20043;-65
2023/07/24 06:25:22;;;;;;;25.88;7.38;;;20.10;99.90;;;;;;4926865;29;20070;-67
2023/07/24 06:27:48;;;;;;;11.90;5.03;;;20.20;99.90;;;;;;4928089;29;20140;-68
2023/07/24 06:30:13;;;;;;;15.32;6.22;;;20.20;99.90;;;;;;4926288;29;20024;-68
2023/07/24 06:32:39;;;;;;;16.45;6.35;;;20.20;99.90;;;;;;4926135;29;20046;-68
2023/07/24 06:35:05;;;;;;;17.30;6.25;;;20.20;99.90;;;;;;4927507;29;20032;-68
2023/07/24 06:37:31;;;;;;;15.60;6.80;;;20.20;99.90;;;;;;4925940;29;20028;-68
2023/07/24 06:39:56;;;;;;;15.10;6.68;;;20.20;99.90;;;;;;4928180;29;20026;-67
2023/07/24 06:42:22;;;;;;;17.48;6.07;;;20.20;99.90;;;;;;4926548;29;20174;-67
2023/07/24 06:44:47;;;;;;;17.58;5.97;;;20.10;99.90;;;;;;4926238;29;20066;-67
2023/07/24 06:47:13;;;;;;;14.25;5.80;;;20.10;99.90;;;;;;4927938;29;20421;-68
2023/07/24 06:49:38;;;;;;;16.42;5.53;;;20.10;99.90;;;;;;4926970;29;20032;-68
2023/07/24 06:52:04;;;;;;;17.95;6.63;;;20.10;99.90;;;;;;4926010;29;20046;-68
2023/07/24 06:54:30;;;;;;;16.85;6.45;;;20.00;99.90;;;;;;4928209;29;20391;-67
2023/07/24 06:56:55;;;;;;;16.80;6.80;;;19.90;99.90;;;;;;4921669;29;20032;-68
2023/07/24 06:59:21;;;;;;;13.80;6.07;;;19.90;99.90;;;;;;4917952;29;20043;-68
2023/07/24 07:01:46;;;;;;;16.48;6.82;;;19.90;99.90;;;;;;4917925;29;20035;-68
2023/07/24 07:04:12;;;;;;;19.10;6.50;;;19.80;99.90;;;;;;4917732;29;20477;-68
2023/07/24 07:06:37;;;;;;;14.65;5.28;;;19.80;99.90;;;;;;4917379;29;20036;-68
2023/07/24 07:09:04;;;;;;;18.23;6.28;;;19.80;99.90;;;;;;4918044;29;20032;-68
2023/07/24 07:11:30;;;;;;;13.85;6.43;;;19.80;99.90;;;;;;4917870;29;20035;-68
2023/07/24 07:13:55;;;;;;;12.88;5.53;;;20.00;99.90;;;;;;4916537;29;20028;-67
2023/07/24 07:16:21;;;;;;;14.00;5.93;;;20.30;99.90;;;;;;4917571;29;20075;-68
2023/07/24 07:18:46;;;;;;;19.35;5.90;;;20.60;99.90;;;;;;4917458;29;20131;-69
2023/07/24 07:21:12;;;;;;;18.05;5.90;;;20.80;99.90;;;;;;4917229;29;20038;-68
2023/07/24 07:23:38;;;;;;;13.13;5.15;;;21.00;99.90;;;;;;4917582;29;20048;-68
2023/07/24 07:26:03;;;;;;;16.13;6.25;;;21.10;99.90;;;;;;4917279;29;20040;-67
2023/07/24 07:28:29;;;;;;;14.75;4.97;;;21.30;99.90;;;;;;4917424;29;20040;-67
2023/07/24 07:30:54;;;;;;;14.30;5.22;;;21.50;99.90;;;;;;4917303;29;20028;-67
2023/07/24 07:33:24;;;;;;;11.32;4.70;;;21.80;99.90;;;;;;4917322;29;20433;-67
2023/07/24 07:35:50;;;;;;;10.77;5.05;;;22.00;99.90;;;;;;4916996;29;20035;-68
2023/07/24 07:38:15;;;;;;;11.73;4.82;;;22.20;99.90;;;;;;4917481;29;20032;-67
2023/07/24 07:40:41;;;;;;;13.07;5.00;;;22.30;99.90;;;;;;4917448;29;20038;-67
2023/07/24 07:43:06;;;;;;;13.32;4.68;;;22.20;99.90;;;;;;4916941;29;20530;-67
2023/07/24 07:45:32;;;;;;;14.77;5.05;;;22.30;99.90;;;;;;4916095;29;20476;-67
2023/07/24 07:47:59;;;;;;;11.00;4.75;;;22.30;99.90;;;;;;4915055;29;20135;-67
2023/07/24 07:50:25;;;;;;;11.88;4.40;;;22.30;99.90;;;;;;4914947;29;20055;-67
2023/07/24 07:52:52;;;;;;;11.20;5.10;;;22.40;99.90;;;;;;4916244;29;20451;-67
2023/07/24 07:55:18;;;;;;;9.35;4.45;;;22.50;99.90;;;;;;4916314;29;20024;-67
2023/07/24 07:57:44;;;;;;;11.05;4.38;;;22.80;99.90;;;;;;4918262;29;20118;-67
2023/07/24 08:00:11;;;;;;;9.27;4.68;;;23.20;99.90;;;;;;4935016;29;20107;-67
2023/07/24 08:02:39;;;;;;;6.88;3.40;;;23.40;99.90;;;;;;4935701;29;20027;-67
2023/07/24 08:05:10;;;;;;;14.20;3.85;;;23.70;99.90;;;;;;4935539;29;20047;-67
2023/07/24 08:07:35;;;;;;;9.48;4.05;;;23.80;99.90;;;;;;4935897;29;20485;-67
2023/07/24 08:10:02;;;;;;;12.05;4.43;;;24.10;99.90;;;;;;4935744;29;20078;-67
2023/07/24 08:12:28;;;;;;;9.35;4.25;;;24.30;99.90;;;;;;4935600;29;20111;-67
2023/07/24 08:14:53;;;;;;;7.68;4.10;;;24.50;99.90;;;;;;4935685;29;20176;-67
2023/07/24 08:17:19;;;;;;;10.13;3.85;;;25.00;99.90;;;;;;4935221;29;20063;-67
2023/07/24 08:19:45;;;;;;;8.63;4.13;;;25.40;99.90;;;;;;4935737;29;20047;-67
2023/07/24 08:22:11;;;;;;;7.60;3.55;;;25.50;99.90;;;;;;4935195;29;20024;-67
2023/07/24 08:24:36;;;;;;;7.38;3.47;;;25.90;99.90;;;;;;4935162;29;20043;-68
2023/07/24 08:27:02;;;;;;;8.70;4.00;;;26.00;99.90;;;;;;4935311;29;20071;-68
2023/07/24 08:29:28;;;;;;;8.70;3.92;;;26.30;99.90;;;;;;4935427;29;20042;-67
2023/07/24 08:31:53;;;;;;;7.93;3.78;;;27.20;99.90;;;;;;4935152;29;20032;-66
2023/07/24 08:34:19;;;;;;;10.52;4.03;;;27.80;98.70;;;;;;4935169;29;20031;-67
2023/07/24 08:36:45;;;;;;;9.43;3.70;;;27.50;98.50;;;;;;4935126;29;20031;-67
2023/07/24 08:39:10;;;;;;;10.38;4.28;;;26.80;99.40;;;;;;4935599;29;20365;-66
2023/07/24 08:41:37;;;;;;;8.52;3.50;;;26.50;99.90;;;;;;4935045;29;20484;-67
2023/07/24 08:44:06;;;;;;;9.77;4.18;;;26.70;99.70;;;;;;4934928;29;20506;-67
2023/07/24 08:46:36;;;;;;;9.60;4.18;;;26.70;99.90;;;;;;4934885;29;20034;-67
2023/07/24 08:49:03;;;;;;;7.60;3.30;;;26.40;99.90;;;;;;4935160;29;20027;-66
2023/07/24 08:51:30;;;;;;;8.25;3.83;;;25.80;99.90;;;;;;4934783;29;20056;-66
2023/07/24 08:53:57;;;;;;;12.57;3.97;;;25.70;99.90;;;;;;4934845;29;20023;-67
2023/07/24 08:56:23;;;;;;;9.90;3.78;;;25.80;99.90;;;;;;4934928;29;20023;-67
2023/07/24 08:58:48;;;;;;;7.40;3.13;;;25.70;99.90;;;;;;4930103;29;20028;-67
2023/07/24 09:01:14;;;;;;;8.20;4.03;;;25.60;99.90;;;;;;4934073;29;20031;-67
2023/07/24 09:03:39;;;;;;;9.38;4.00;;;25.50;99.90;;;;;;4940173;29;20182;-67
2023/07/24 09:06:07;;;;;;;9.07;3.70;;;25.40;99.90;;;;;;4956460;28;20038;-67
2023/07/24 09:08:35;;;;;;;7.78;3.40;;;25.40;99.90;;;;;;4958009;28;20027;-67
2023/07/24 09:11:02;;;;;;;11.52;4.65;;;25.70;99.90;;;;;;4958106;28;20430;-67
2023/07/24 09:13:29;;;;;;;6.88;3.58;;;25.90;99.90;;;;;;4956573;29;20420;-67
2023/07/24 09:15:55;;;;;;;10.95;3.88;;;25.80;99.90;;;;;;4956928;28;20166;-67
2023/07/24 09:18:21;;;;;;;7.35;3.80;;;25.60;99.90;;;;;;4957785;29;20031;-67
2023/07/24 09:20:48;;;;;;;10.55;3.80;;;25.30;99.90;;;;;;4957622;28;20030;-67
2023/07/24 09:23:14;;;;;;;10.30;3.78;;;25.30;99.90;;;;;;4947835;28;20051;-67
2023/07/24 09:25:42;;;;;;;9.32;4.32;;;25.90;99.90;;;;;;4937200;29;20030;-67
2023/07/24 09:28:14;;;;;;;5.88;2.88;;;26.80;99.60;;;;;;4937036;29;20107;-67
2023/07/24 09:30:41;;;;;;;6.00;3.15;;;28.30;97.40;;;;;;4937154;29;20039;-67
2023/07/24 09:33:08;;;;;;;8.77;3.15;;;29.30;96.60;;;;;;4937238;29;20032;-67
2023/07/24 09:35:33;;;;;;;6.43;3.13;;;29.90;96.10;;;;;;4937198;29;20023;-66
2023/07/24 09:38:03;;;;;;;7.80;3.53;;;30.40;95.10;;;;;;4935904;29;20079;-67
2023/07/24 09:40:36;;;;;;;7.40;3.33;;;29.70;95.00;;;;;;4937301;29;20033;-67
2023/07/24 09:43:02;;;;;;;11.10;3.60;;;29.20;95.70;;;;;;4938095;29;20056;-67
2023/07/24 09:45:28;;;;;;;5.95;2.92;;;29.20;96.20;;;;;;4931346;29;20046;-68
2023/07/24 09:47:56;;;;;;;9.20;3.50;;;29.60;95.20;;;;;;4937602;29;20040;-67
2023/07/24 09:50:23;;;;;;;12.77;4.05;;;29.40;95.90;;;;;;4947445;29;20090;-67
2023/07/24 09:52:49;;;;;;;6.80;3.47;;;29.00;95.50;;;;;;4957072;28;20033;-67
2023/07/24 09:55:23;;;;;;;10.63;4.20;;;28.50;96.30;;;;;;4956284;29;20158;-68
2023/07/24 09:57:50;;;;;;;7.72;3.65;;;28.20;96.70;;;;;;4957209;28;20038;-67
2023/07/24 10:00:16;;;;;;;6.65;3.58;;;28.20;97.10;;;;;;4957052;28;20117;-67
2023/07/24 10:02:42;;;;;;;8.50;3.30;;;28.00;96.80;;;;;;4956941;29;20027;-67
2023/07/24 10:05:07;;;;;;;10.00;3.70;;;27.80;96.70;;;;;;4942783;28;20439;-69
2023/07/24 10:07:33;;;;;;;8.27;3.58;;;27.30;97.40;;;;;;4955658;29;20034;-67
2023/07/24 10:09:59;;;;;;;6.97;3.67;;;26.80;98.00;;;;;;4956694;28;20031;-67
2023/07/24 10:12:27;;;;;;;13.30;4.53;;;26.30;98.80;;;;;;4956938;28;20033;-67
2023/07/24 10:14:55;;;;;;;6.57;3.50;;;25.90;99.30;;;;;;4956305;28;20040;-67
2023/07/24 10:17:37;;;;;;;7.45;3.55;;;25.70;99.90;;;;;;4954704;28;20054;-68
2023/07/24 10:20:08;;;;;;;9.90;4.00;;;25.40;99.90;;;;;;4955019;28;20039;-67
2023/07/24 10:22:34;;;;;;;11.02;3.85;;;25.10;99.90;;;;;;4955441;28;20474;-67
2023/07/24 10:24:59;;;;;;;9.60;3.65;;;24.90;99.90;;;;;;4956713;28;20039;-67
2023/07/24 10:27:26;;;;;;;7.55;3.70;;;24.70;99.90;;;;;;4956349;29;20031;-68
2023/07/24 10:30:04;;;;;;;8.88;3.35;;;24.50;99.90;;;;;;4956974;28;20031;-68
2023/07/24 10:32:30;;;;;;;10.40;3.60;;;24.30;99.90;;;;;;4956842;28;20039;-67
2023/07/24 10:35:06;;;;;;;7.47;3.67;;;24.20;99.90;;;;;;4956357;28;20110;-67
2023/07/24 10:37:34;;;;;;;12.10;5.97;;;23.90;99.90;;;;;;4956651;28;20040;-68
2023/07/24 10:40:00;;;;;;;11.95;5.38;;;23.60;99.90;;;;;;4956535;28;20199;-68
2023/07/24 10:42:26;;;;;;;11.05;4.80;;;23.20;99.90;;;;;;4956585;28;20046;-65
2023/07/24 10:45:08;;;;;;;11.18;5.05;;;22.80;99.90;;;;;;4955758;29;20077;-67
2023/07/24 10:47:34;;;;;;;10.23;6.03;;;22.30;99.90;;;;;;4956220;28;20034;-67
2023/07/24 10:50:02;;;;;;;8.23;4.57;;;21.80;99.90;;;;;;4956344;28;20027;-67
2023/07/24 10:52:30;;;;;;;12.30;6.47;;;21.50;99.90;;;;;;4955863;28;20486;-66
2023/07/24 10:54:56;;;;;;;11.68;5.32;;;21.20;99.90;;;;;;4956146;28;20082;-67
2023/07/24 10:57:29;;;;;;;14.27;6.55;;;20.90;99.90;;;;;;4956203;28;20039;-67
2023/07/24 10:59:54;;;;;;;12.80;5.95;;;20.80;99.90;;;;;;4954636;29;20244;-67
2023/07/24 11:02:20;;;;;;;12.85;5.43;;;20.80;99.90;;;;;;4955984;29;20114;-68
2023/07/24 11:04:46;;;;;;;11.15;4.88;;;21.00;99.90;;;;;;4956085;28;20381;-67
2023/07/24 11:07:12;;;;;;;8.48;5.13;;;21.30;99.90;;;;;;4956043;28;20046;-67
2023/07/24 11:09:40;;;;;;;6.95;4.72;;;21.70;99.90;;;;;;4955999;28;20479;-67
2023/07/24 11:12:16;;;;;;;8.20;4.30;;;22.00;99.90;;;;;;4955822;28;20027;-67
2023/07/24 11:14:56;;;;;;;9.68;5.00;;;22.40;99.90;;;;;;4955835;28;20046;-67
2023/07/24 11:17:22;;;;;;;7.68;3.92;;;22.70;99.90;;;;;;4955870;28;20050;-67
2023/07/24 11:19:47;;;;;;;8.65;4.47;;;23.10;99.90;;;;;;4955855;29;20145;-66
2023/07/24 11:22:14;;;;;;;11.77;5.85;;;23.50;99.90;;;;;;4955952;29;20203;-67
2023/07/24 11:24:57;;;;;;;8.50;4.15;;;24.00;99.90;;;;;;4955692;28;20047;-67
2023/07/24 11:27:25;;;;;;;5.72;3.50;;;24.20;99.90;;;;;;4955676;28;20031;-67
2023/07/24 11:29:51;;;;;;;4.95;2.70;;;24.30;99.90;;;;;;4955269;29;20039;-67
2023/07/24 11:32:20;;;;;;;4.70;2.85;;;24.10;99.90;;;;;;4955465;28;20031;-67
2023/07/24 11:34:47;;;;;;;3.83;2.03;;;23.90;99.90;;;;;;4955671;28;20086;-67
2023/07/24 11:37:13;;;;;;;3.85;2.75;;;23.60;99.90;;;;;;4955465;28;20027;-67
2023/07/24 11:39:39;;;;;;;4.03;2.58;;;23.50;99.90;;;;;;4955598;28;20054;-67
2023/07/24 11:42:05;;;;;;;5.18;2.83;;;23.60;99.90;;;;;;4955418;28;20511;-67
2023/07/24 11:44:31;;;;;;;5.20;3.17;;;23.90;99.90;;;;;;4955175;28;20062;-67
2023/07/24 11:47:06;;;;;;;4.15;2.13;;;24.30;99.90;;;;;;4955378;29;20416;-67
2023/07/24 11:49:32;;;;;;;4.43;1.67;;;24.80;99.90;;;;;;4955407;29;20046;-67
2023/07/24 11:52:06;;;;;;;3.33;2.05;;;25.70;99.90;;;;;;4954812;28;20024;-67
2023/07/24 11:54:35;;;;;;;3.42;1.40;;;26.70;99.90;;;;;;4955189;28;20039;-67
2023/07/24 11:57:00;;;;;;;4.43;2.28;;;27.50;99.90;;;;;;4955198;28;20075;-67
2023/07/24 11:59:26;;;;;;;3.38;1.60;;;28.00;99.70;;;;;;4955060;29;20031;-67
2023/07/24 12:01:52;;;;;;;3.08;1.67;;;28.30;98.90;;;;;;4942138;28;20031;-67
2023/07/24 12:04:18;;;;;;;7.70;4.20;;;28.60;98.50;;;;;;4933548;29;20040;-68
2023/07/24 12:06:44;;;;;;;5.82;1.90;;;28.50;98.10;;;;;;4935375;29;20038;-67
2023/07/24 12:09:13;;;;;;;6.15;2.83;;;27.90;98.20;;;;;;4951612;29;20031;-67
2023/07/24 12:11:41;;;;;;;6.70;2.70;;;27.10;99.20;;;;;;4954643;29;20059;-66
2023/07/24 12:14:06;;;;;;;11.13;3.10;;;26.40;99.90;;;;;;4954803;28;20035;-67
2023/07/24 12:16:34;;;;;;;5.03;1.50;;;26.20;99.90;;;;;;4954360;29;20041;-68
2023/07/24 12:18:59;;;;;;;5.18;1.70;;;26.20;99.90;;;;;;4954428;28;20057;-67
2023/07/24 12:21:25;;;;;;;8.45;2.78;;;26.30;99.90;;;;;;4954597;28;20140;-67
2023/07/24 12:23:50;;;;;;;7.57;2.70;;;26.60;99.90;;;;;;4954422;29;20083;-66
2023/07/24 12:26:16;;;;;;;7.20;2.35;;;27.30;99.40;;;;;;4954698;29;20058;-67
2023/07/24 12:28:42;;;;;;;7.65;2.22;;;27.60;98.60;;;;;;4954155;29;20480;-68
2023/07/24 12:31:08;;;;;;;5.35;1.60;;;27.50;98.90;;;;;;4954649;29;20050;-68
2023/07/24 12:33:33;;;;;;;6.72;2.25;;;27.40;99.20;;;;;;4954070;28;20047;-68
2023/07/24 12:35:59;;;;;;;5.50;1.98;;;27.30;98.80;;;;;;4954429;28;20533;-67
2023/07/24 12:38:24;;;;;;;5.82;1.90;;;27.20;98.80;;;;;;4954208;29;20031;-67